Aeroporto :
LOGIN :

Iscrizione | Disclaimer

   EN    FR    IT 

 










Sommario :    VFR   VFR Marginale   IFR   IFR Intensivo   IFR Molto Intensivo
Visibilità : 
Base nubi : 
>= 8 km
>= 3000ft
5 / 8 km
1000 / 3000 ft
1500m / 5 km
500 / 1000 ft
800 / 1500m
200 / 500 ft
< 800m
< 200 ft
Simboli :   Temporali  Nebbia  Neve Forte  Precipitazioni Forti  Vento > 20 kt
SIGMETs :   Varie  Temporali  Ghiacco  Turbolenza  Onda orograficha  Ceneri Vulcaniche






- Altitudine del aeroporto : 219 ft
- Codice IATA : DNR


LFRD - Dinard

ULTIMO METAR :
  • 191500Z AUTO 15008KT CAVOK 08/05 Q1015 TEMPO BKN005

METARs OBSOLETI :
  • 191430Z AUTO 16008KT CAVOK 08/05 Q1015 TEMPO BKN005
  • 191400Z AUTO 16008KT 9999 FEW044 SCT240 08/06 Q1015 TEMPO BKN005
  • 191330Z AUTO 17008KT 9999 SCT042 BKN230 08/05 Q1015 TEMPO BKN005
  • 191300Z AUTO 17009KT CAVOK 07/05 Q1016 TEMPO BKN005
  • 191230Z AUTO 18009KT CAVOK 07/05 Q1016 TEMPO BKN005

TAF TAF LFRD
Valido dal 19 a 12 ore il 20 a 12 ore UTC


191100Z 1912/2012 17008KT CAVOK
TEMPO 1912/2012 BKN005
TEMPO 1922/2008 4000 BR
ATIS : +33 2 99 16 81 50



MetMap, La meteo Aeronautica in un colpo d'occhio ! - Copyright ORBIFLY Dicembre 2007 - Disclaimer

ORBIFLY MET'MAP TEAM :

Programmazione e sviluppo : Alexandra Zaïnal
Concezione e sviluppo : Baudouin d'Aumeries
Co-Programmazione e sviluppo : Marc-Olivier Méhu
Supporto tecnico e logistico : Manuel Goepfert
Aiuto per la traduzione : Arnaldo La Scala

Contatto : metmap@orbifly.com




FONTI E CREDITI :

   NOAA